Time;durP1;ratioP1;P1;durP2;ratioP2;P2;SDS_P1;SDS_P2;PMS_P1;PMS_P2;Temp;Humidity;BMP_temperature;BMP_pressure;BME280_temperature;BME280_humidity;BME280_pressure;Samples;Min_cycle;Max_cycle;Signal;HPM_P1;HPM_P2
2022/05/27 00:01:22;;;;;;;7.80;4.60;;;13.20;99.90;;;;;;4987667;28;20057;-75
2022/05/27 00:03:48;;;;;;;8.70;4.80;;;13.10;99.90;;;;;;4971718;28;20387;-75
2022/05/27 00:06:14;;;;;;;9.50;4.78;;;13.10;99.90;;;;;;4957267;28;20046;-75
2022/05/27 00:08:40;;;;;;;10.55;4.53;;;13.10;99.90;;;;;;4970669;28;20545;-74
2022/05/27 00:11:07;;;;;;;9.95;4.13;;;13.00;99.90;;;;;;4955705;28;20050;-74
2022/05/27 00:13:33;;;;;;;11.25;4.30;;;13.00;99.90;;;;;;4985384;28;20045;-75
2022/05/27 00:15:59;;;;;;;9.95;5.03;;;13.00;99.90;;;;;;4987819;28;20048;-75
2022/05/27 00:18:25;;;;;;;11.43;5.18;;;12.90;99.90;;;;;;4973213;28;20042;-75
2022/05/27 00:20:50;;;;;;;13.82;5.10;;;12.90;99.90;;;;;;4970463;28;20037;-75
2022/05/27 00:23:17;;;;;;;11.38;5.13;;;12.90;99.90;;;;;;4987569;28;20099;-75
2022/05/27 00:25:43;;;;;;;10.15;5.57;;;12.90;99.90;;;;;;4969258;28;20122;-75
2022/05/27 00:28:09;;;;;;;17.15;5.47;;;12.90;99.90;;;;;;4989293;28;20128;-75
2022/05/27 00:30:35;;;;;;;135.40;27.45;;;12.90;99.90;;;;;;4971913;28;20097;-74
2022/05/27 00:33:02;;;;;;;11.40;4.90;;;12.90;99.90;;;;;;4953837;28;20054;-75
2022/05/27 00:35:28;;;;;;;11.40;4.75;;;12.90;99.90;;;;;;4986424;28;20054;-75
2022/05/27 00:37:54;;;;;;;10.13;5.13;;;12.80;99.90;;;;;;4972900;28;20042;-75
2022/05/27 00:40:21;;;;;;;10.55;4.75;;;12.80;99.90;;;;;;4986910;28;20491;-75
2022/05/27 00:42:47;;;;;;;10.23;4.82;;;12.80;99.90;;;;;;5000220;28;20446;-74
2022/05/27 00:45:23;;;;;;;8.75;4.00;;;12.80;99.90;;;;;;4988302;28;20120;-75
2022/05/27 00:47:52;;;;;;;9.45;4.65;;;12.70;99.90;;;;;;4987237;28;20395;-75
2022/05/27 00:50:21;;;;;;;9.45;4.15;;;12.70;99.90;;;;;;4973031;28;20124;-74
2022/05/27 00:52:48;;;;;;;6.47;4.20;;;12.70;99.90;;;;;;4985341;28;20064;-75
2022/05/27 00:55:20;;;;;;;12.80;5.32;;;12.70;99.90;;;;;;4986342;28;20034;-75
2022/05/27 00:58:01;;;;;;;10.00;4.43;;;12.70;99.90;;;;;;4986744;28;20577;-75
2022/05/27 01:00:27;;;;;;;9.93;4.22;;;12.60;99.90;;;;;;4986638;28;20045;-74
2022/05/27 01:02:55;;;;;;;12.43;4.50;;;12.60;99.90;;;;;;4986828;28;20476;-74
2022/05/27 01:05:23;;;;;;;8.40;4.40;;;12.60;99.90;;;;;;4987018;28;20061;-75
2022/05/27 01:08:03;;;;;;;9.77;4.65;;;12.50;99.90;;;;;;4973406;28;20041;-75
2022/05/27 01:10:38;;;;;;;10.93;3.88;;;12.50;99.90;;;;;;4986529;28;20486;-75
2022/05/27 01:13:18;;;;;;;10.75;4.50;;;12.50;99.90;;;;;;4984466;28;20050;-75
2022/05/27 01:15:59;;;;;;;12.27;4.47;;;12.50;99.90;;;;;;4985779;28;20048;-74
2022/05/27 01:22:02;;;;;;;6.80;4.53;;;12.50;99.90;;;;;;4957060;28;20045;-74
2022/05/27 01:25:05;;;;;;;10.45;4.35;;;12.40;99.90;;;;;;4969554;28;20040;-74
2022/05/27 01:27:57;;;;;;;12.07;5.25;;;12.40;99.90;;;;;;4984702;28;20060;-74
2022/05/27 01:30:23;;;;;;;9.63;5.22;;;12.50;99.90;;;;;;4971032;28;20041;-74
2022/05/27 01:33:06;;;;;;;10.13;5.05;;;12.40;99.90;;;;;;4982997;28;20388;-74
2022/05/27 01:35:55;;;;;;;15.15;5.35;;;12.40;99.90;;;;;;4987902;28;20057;-74
2022/05/27 01:38:54;;;;;;;12.10;5.53;;;12.40;99.90;;;;;;4987508;28;20069;-74
2022/05/27 01:41:43;;;;;;;12.63;5.80;;;12.40;99.90;;;;;;4971727;28;20402;-74
2022/05/27 01:44:26;;;;;;;16.67;5.78;;;12.40;99.90;;;;;;4969433;28;20034;-74
2022/05/27 01:46:51;;;;;;;15.20;6.13;;;12.30;99.90;;;;;;4986552;28;20046;-74
2022/05/27 01:49:43;;;;;;;13.68;5.63;;;12.30;99.90;;;;;;4986808;28;20549;-74
2022/05/27 01:52:34;;;;;;;12.73;5.93;;;12.30;99.90;;;;;;4970648;28;20144;-74
2022/05/27 01:55:11;;;;;;;14.50;5.97;;;12.30;99.90;;;;;;4987316;28;20129;-74
2022/05/27 01:57:48;;;;;;;14.13;6.07;;;12.30;99.90;;;;;;4971996;28;20034;-74
2022/05/27 02:00:22;;;;;;;12.77;6.65;;;12.30;99.90;;;;;;4969400;28;20149;-74
2022/05/27 02:03:00;;;;;;;11.45;5.90;;;12.20;99.90;;;;;;4970727;28;20634;-74
2022/05/27 02:05:51;;;;;;;14.38;6.50;;;12.20;99.90;;;;;;4972187;28;20038;-74
2022/05/27 02:08:24;;;;;;;11.63;5.75;;;12.20;99.90;;;;;;4971406;28;20589;-74
2022/05/27 02:10:53;;;;;;;15.68;6.03;;;12.20;99.90;;;;;;4987853;28;20776;-74
2022/05/27 02:13:25;;;;;;;12.13;6.07;;;12.10;99.90;;;;;;4970750;28;20038;-74
2022/05/27 02:15:52;;;;;;;15.48;6.00;;;12.10;99.90;;;;;;4985463;28;20550;-74
2022/05/27 02:18:48;;;;;;;20.25;6.88;;;12.10;99.90;;;;;;4967014;28;20128;-74
2022/05/27 02:21:29;;;;;;;15.23;6.03;;;12.10;99.90;;;;;;4985215;28;20125;-74
2022/05/27 02:24:03;;;;;;;12.35;5.65;;;12.00;99.90;;;;;;4982693;28;20555;-74
2022/05/27 02:26:33;;;;;;;14.27;6.03;;;12.00;99.90;;;;;;4984071;28;20426;-74
2022/05/27 02:29:05;;;;;;;12.25;5.85;;;12.00;99.90;;;;;;4972451;28;20121;-74
2022/05/27 02:31:35;;;;;;;16.83;6.25;;;12.00;99.90;;;;;;4984056;28;20037;-74
2022/05/27 02:37:01;;;;;;;13.15;5.78;;;11.90;99.90;;;;;;4986763;28;20049;-74
2022/05/27 02:39:27;;;;;;;16.13;6.43;;;12.00;99.90;;;;;;4972205;28;20034;-74
2022/05/27 02:41:56;;;;;;;12.90;6.03;;;11.90;99.90;;;;;;4970939;28;20244;-74
2022/05/27 02:44:36;;;;;;;15.43;6.55;;;11.90;99.90;;;;;;4970590;28;20079;-73
2022/05/27 02:47:04;;;;;;;13.27;5.88;;;11.90;99.90;;;;;;4988506;28;20038;-74
2022/05/27 02:49:48;;;;;;;20.63;6.35;;;11.90;99.90;;;;;;4988640;28;20052;-74
2022/05/27 02:52:45;;;;;;;15.10;6.15;;;11.90;99.90;;;;;;4986483;28;20049;-74
2022/05/27 02:55:25;;;;;;;14.55;5.90;;;11.90;99.90;;;;;;4990653;28;20169;-74
2022/05/27 02:57:54;;;;;;;16.42;5.15;;;11.80;99.90;;;;;;4986564;28;20046;-73
2022/05/27 03:00:26;;;;;;;19.08;6.00;;;11.80;99.90;;;;;;4974880;28;20041;-74
2022/05/27 03:02:53;;;;;;;16.90;5.47;;;11.80;99.90;;;;;;4989408;28;20050;-74
2022/05/27 03:05:25;;;;;;;15.98;5.50;;;11.80;99.90;;;;;;4968389;28;20147;-74
2022/05/27 03:08:11;;;;;;;18.55;5.30;;;11.70;99.90;;;;;;4972735;28;20359;-73
2022/05/27 03:10:52;;;;;;;15.30;5.45;;;11.80;99.90;;;;;;4974733;28;20050;-74
2022/05/27 03:13:44;;;;;;;15.45;5.60;;;11.70;99.90;;;;;;5002946;28;20474;-74
2022/05/27 03:16:34;;;;;;;14.60;7.10;;;11.70;99.90;;;;;;4987059;28;20053;-74
2022/05/27 03:19:16;;;;;;;13.80;4.75;;;11.70;99.90;;;;;;4990925;28;20038;-74
2022/05/27 03:22:09;;;;;;;20.45;5.00;;;11.70;99.90;;;;;;4971901;28;20049;-74
2022/05/27 03:24:47;;;;;;;17.00;5.65;;;11.60;99.90;;;;;;4988877;28;20104;-73
2022/05/27 03:27:39;;;;;;;17.50;5.55;;;11.60;99.90;;;;;;4988977;28;20052;-73
2022/05/27 03:30:17;;;;;;;21.45;5.60;;;11.60;99.90;;;;;;4974149;28;20046;-73
2022/05/27 03:32:55;;;;;;;16.92;5.47;;;11.60;99.90;;;;;;4986931;28;20207;-73
2022/05/27 03:35:43;;;;;;;15.57;5.60;;;11.60;99.90;;;;;;4988787;28;20065;-74
2022/05/27 03:38:17;;;;;;;19.63;6.80;;;11.60;99.90;;;;;;4989966;28;20046;-73
2022/05/27 03:41:15;;;;;;;19.48;5.82;;;11.50;99.90;;;;;;4991097;28;20038;-73
2022/05/27 03:43:43;;;;;;;17.17;5.47;;;11.60;99.90;;;;;;4970075;28;20041;-74
2022/05/27 03:46:09;;;;;;;16.00;5.38;;;11.50;99.90;;;;;;4988699;28;20069;-73
2022/05/27 03:48:35;;;;;;;19.15;5.40;;;11.50;99.90;;;;;;4958540;28;20762;-74
2022/05/27 03:51:23;;;;;;;18.90;5.88;;;11.50;99.90;;;;;;4972239;28;20065;-74
2022/05/27 03:54:03;;;;;;;16.40;5.85;;;11.50;99.90;;;;;;4973678;28;20034;-73
2022/05/27 03:56:37;;;;;;;22.02;5.80;;;11.40;99.90;;;;;;4987762;28;20112;-74
2022/05/27 03:59:05;;;;;;;25.90;6.30;;;11.40;99.90;;;;;;4989041;28;20319;-74
2022/05/27 04:01:32;;;;;;;20.80;6.00;;;11.40;99.90;;;;;;4973253;28;20041;-73
2022/05/27 04:04:00;;;;;;;21.95;6.32;;;11.40;99.90;;;;;;4961410;28;20574;-73
2022/05/27 04:06:27;;;;;;;20.55;5.80;;;11.50;99.90;;;;;;4974181;28;20164;-73
2022/05/27 04:08:53;;;;;;;21.33;5.80;;;11.40;99.90;;;;;;5005732;28;20488;-74
2022/05/27 04:11:19;;;;;;;32.45;7.18;;;11.50;99.90;;;;;;4972896;28;20045;-73
2022/05/27 04:13:46;;;;;;;16.05;5.57;;;11.50;99.90;;;;;;4974092;28;20061;-73
2022/05/27 04:16:12;;;;;;;17.75;6.38;;;11.40;99.90;;;;;;4973528;28;20132;-74
2022/05/27 04:18:37;;;;;;;21.40;6.30;;;11.50;99.90;;;;;;4988303;28;20601;-73
2022/05/27 04:21:03;;;;;;;25.20;6.20;;;11.40;99.90;;;;;;4965080;28;20125;-73
2022/05/27 04:23:29;;;;;;;14.48;5.85;;;11.50;99.90;;;;;;4954067;28;20041;-73
2022/05/27 04:25:55;;;;;;;17.30;5.72;;;11.50;99.90;;;;;;4972535;28;20365;-73
2022/05/27 04:28:21;;;;;;;26.15;6.28;;;11.50;99.90;;;;;;4970810;28;20056;-73
2022/05/27 04:30:47;;;;;;;18.58;5.38;;;11.50;99.90;;;;;;4987996;28;20041;-73
2022/05/27 04:33:13;;;;;;;20.05;6.28;;;11.50;99.90;;;;;;4987523;28;20057;-73
2022/05/27 04:35:39;;;;;;;18.70;5.90;;;11.50;99.90;;;;;;4957707;28;20042;-73
2022/05/27 04:38:05;;;;;;;22.73;6.68;;;11.60;99.90;;;;;;4958290;28;20476;-73
2022/05/27 04:40:31;;;;;;;19.98;5.70;;;11.50;99.90;;;;;;4972155;28;20132;-73
2022/05/27 04:42:57;;;;;;;23.67;5.32;;;11.50;99.90;;;;;;4970906;28;20598;-73
2022/05/27 04:45:23;;;;;;;24.70;6.43;;;11.60;99.90;;;;;;4973172;28;20095;-73
2022/05/27 04:47:49;;;;;;;17.35;5.20;;;11.60;99.90;;;;;;4957075;28;20037;-73
2022/05/27 04:50:18;;;;;;;18.33;4.80;;;11.60;99.90;;;;;;4970107;28;20045;-73
2022/05/27 04:52:43;;;;;;;24.88;6.80;;;11.60;99.90;;;;;;4988136;28;20510;-73
2022/05/27 04:55:12;;;;;;;18.83;5.60;;;11.60;99.90;;;;;;4973343;28;20071;-73
2022/05/27 04:57:50;;;;;;;21.33;5.63;;;11.60;99.90;;;;;;4987646;28;20038;-73
2022/05/27 05:00:23;;;;;;;14.73;4.65;;;11.60;99.90;;;;;;4987767;28;20042;-73
2022/05/27 05:02:51;;;;;;;22.15;5.55;;;11.60;99.90;;;;;;4967228;28;20029;-73
2022/05/27 05:05:21;;;;;;;16.38;4.97;;;11.60;99.90;;;;;;4988806;28;20541;-73
2022/05/27 05:07:51;;;;;;;21.30;5.00;;;11.60;99.90;;;;;;4986213;28;20096;-73
2022/05/27 05:10:20;;;;;;;16.88;4.78;;;11.50;99.90;;;;;;4987315;28;20038;-72
2022/05/27 05:12:48;;;;;;;15.52;5.20;;;11.50;99.90;;;;;;4969328;28;20125;-72
2022/05/27 05:15:14;;;;;;;19.13;4.88;;;11.50;99.90;;;;;;4986178;28;20046;-72
2022/05/27 05:17:39;;;;;;;19.45;4.88;;;11.50;99.90;;;;;;4953519;28;20040;-72
2022/05/27 05:20:07;;;;;;;21.25;5.05;;;11.50;99.90;;;;;;4989350;28;20099;-73
2022/05/27 05:22:32;;;;;;;19.15;5.78;;;11.50;99.90;;;;;;4955911;28;20041;-72
2022/05/27 05:24:58;;;;;;;14.15;5.32;;;11.50;99.90;;;;;;4972068;28;20038;-72
2022/05/27 05:27:28;;;;;;;15.93;5.32;;;11.50;99.90;;;;;;4986128;28;20364;-72
2022/05/27 05:29:55;;;;;;;22.25;4.50;;;11.50;99.90;;;;;;4972780;28;20045;-72
2022/05/27 05:32:21;;;;;;;16.23;4.35;;;11.50;99.90;;;;;;4985766;28;20049;-72
2022/05/27 05:34:48;;;;;;;18.65;5.30;;;11.50;99.90;;;;;;4970403;28;20054;-72
2022/05/27 05:37:15;;;;;;;13.10;4.75;;;11.50;99.90;;;;;;4957345;28;20503;-72
2022/05/27 05:39:41;;;;;;;12.77;4.18;;;11.60;99.90;;;;;;4955930;28;20045;-72
2022/05/27 05:42:08;;;;;;;17.17;4.68;;;11.70;99.90;;;;;;4985823;28;20046;-72
2022/05/27 05:44:34;;;;;;;16.70;4.32;;;11.70;99.90;;;;;;4986637;28;20038;-72
2022/05/27 05:47:01;;;;;;;22.42;5.88;;;11.70;99.90;;;;;;4970195;28;20068;-72
2022/05/27 05:49:27;;;;;;;18.08;4.07;;;11.80;99.90;;;;;;4988370;28;20038;-72
2022/05/27 05:51:56;;;;;;;16.05;4.38;;;11.70;99.90;;;;;;4972291;28;20030;-72
2022/05/27 05:54:23;;;;;;;16.63;4.20;;;11.80;99.90;;;;;;4984943;28;20069;-72
2022/05/27 05:56:50;;;;;;;11.77;4.05;;;11.80;99.90;;;;;;4955999;28;20175;-72
2022/05/27 05:59:17;;;;;;;14.02;3.95;;;11.80;99.90;;;;;;4956884;28;20069;-72
2022/05/27 06:01:43;;;;;;;17.52;3.65;;;11.80;99.90;;;;;;4965998;28;20049;-72
2022/05/27 06:04:09;;;;;;;19.80;3.97;;;11.80;99.90;;;;;;4986672;28;20041;-72
2022/05/27 06:06:35;;;;;;;19.30;4.40;;;11.80;99.90;;;;;;4985720;28;20030;-72
2022/05/27 06:09:03;;;;;;;16.52;4.75;;;11.80;99.90;;;;;;4939521;28;20042;-72
2022/05/27 06:11:28;;;;;;;16.05;4.05;;;11.80;99.90;;;;;;4988192;28;20072;-72
2022/05/27 06:13:54;;;;;;;13.20;3.80;;;11.80;99.90;;;;;;4985950;28;20704;-72
2022/05/27 06:16:20;;;;;;;15.90;4.10;;;11.80;99.90;;;;;;4991672;28;20038;-72
2022/05/27 06:18:46;;;;;;;14.25;3.88;;;11.70;99.90;;;;;;4975699;28;20034;-72
2022/05/27 06:21:12;;;;;;;13.15;3.60;;;11.70;99.90;;;;;;4968866;28;20049;-72
2022/05/27 06:23:38;;;;;;;22.50;5.28;;;11.70;99.90;;;;;;4974141;28;20034;-72
2022/05/27 06:26:10;;;;;;;16.48;3.95;;;11.80;99.90;;;;;;4989987;28;20081;-71
2022/05/27 06:34:24;;;;;;;14.00;3.75;;;11.80;99.90;;;;;;4975749;28;20153;-71
2022/05/27 06:36:55;;;;;;;17.75;3.55;;;11.90;99.90;;;;;;4992115;28;20121;-71
2022/05/27 06:39:21;;;;;;;13.38;3.35;;;11.90;99.90;;;;;;4991979;28;20116;-71
2022/05/27 06:41:47;;;;;;;13.60;3.47;;;12.00;99.90;;;;;;4973146;28;20040;-71
2022/05/27 06:44:13;;;;;;;9.90;3.17;;;12.00;99.90;;;;;;4974205;28;20046;-71
2022/05/27 06:46:39;;;;;;;15.90;3.72;;;12.00;99.90;;;;;;4974594;28;20057;-71
2022/05/27 06:49:06;;;;;;;11.75;3.50;;;12.10;99.90;;;;;;4992009;28;20045;-71
2022/05/27 06:51:34;;;;;;;13.70;3.33;;;12.20;99.90;;;;;;4990651;28;20121;-71
2022/05/27 06:54:00;;;;;;;18.35;3.88;;;12.20;99.90;;;;;;4988347;28;20124;-71
2022/05/27 06:56:26;;;;;;;16.85;3.90;;;12.20;99.90;;;;;;4989121;28;20245;-71
2022/05/27 06:58:52;;;;;;;10.23;3.03;;;12.30;99.90;;;;;;4990850;28;20123;-71
2022/05/27 07:01:17;;;;;;;16.33;4.18;;;12.20;99.90;;;;;;4973580;28;20037;-71
2022/05/27 07:03:43;;;;;;;14.55;3.42;;;12.30;99.90;;;;;;4942703;28;20045;-71
2022/05/27 07:06:11;;;;;;;12.18;3.20;;;12.30;99.90;;;;;;4941807;28;20544;-72
2022/05/27 07:08:38;;;;;;;11.70;3.58;;;12.40;99.90;;;;;;4975768;28;20583;-72
2022/05/27 07:11:04;;;;;;;18.48;3.88;;;12.40;99.90;;;;;;4970737;28;20046;-71
2022/05/27 07:13:31;;;;;;;13.00;3.60;;;12.50;99.90;;;;;;4991086;28;20037;-72
2022/05/27 07:15:57;;;;;;;12.82;3.97;;;12.50;99.90;;;;;;4972386;28;20041;-72
2022/05/27 07:18:23;;;;;;;10.88;3.15;;;12.60;99.90;;;;;;4967253;28;20031;-72
2022/05/27 07:20:49;;;;;;;15.20;3.92;;;12.60;99.90;;;;;;4989124;28;20453;-73
2022/05/27 07:23:17;;;;;;;19.70;4.50;;;12.60;99.90;;;;;;4973718;28;20052;-72
2022/05/27 07:25:44;;;;;;;14.52;4.05;;;12.60;99.90;;;;;;4989354;28;20046;-72
2022/05/27 07:28:11;;;;;;;14.82;3.88;;;12.60;99.90;;;;;;4991305;28;20526;-72
2022/05/27 07:30:37;;;;;;;15.80;3.38;;;12.60;99.90;;;;;;4978061;28;20038;-73
2022/05/27 07:33:03;;;;;;;18.75;3.88;;;12.40;99.90;;;;;;4975303;28;20427;-73
2022/05/27 07:35:29;;;;;;;15.07;3.30;;;12.40;99.90;;;;;;4963366;28;20085;-73
2022/05/27 07:37:55;;;;;;;9.45;3.17;;;12.50;99.90;;;;;;4975681;28;20492;-72
2022/05/27 07:40:21;;;;;;;11.95;3.33;;;12.50;99.90;;;;;;4991104;28;20048;-73
2022/05/27 07:42:48;;;;;;;10.90;3.60;;;12.50;99.90;;;;;;4986768;28;20038;-73
2022/05/27 07:45:16;;;;;;;12.23;3.15;;;12.50;99.90;;;;;;4988199;28;20056;-73
2022/05/27 07:47:41;;;;;;;17.95;4.28;;;12.60;99.90;;;;;;4972205;28;20574;-73
2022/05/27 07:50:09;;;;;;;12.73;3.67;;;12.70;99.90;;;;;;4988250;28;20057;-73
2022/05/27 07:52:36;;;;;;;15.90;3.90;;;12.80;99.90;;;;;;4973005;28;20484;-74
2022/05/27 07:55:03;;;;;;;10.80;3.08;;;13.00;99.90;;;;;;4981691;28;20063;-73
2022/05/27 07:57:29;;;;;;;12.40;3.08;;;13.00;99.90;;;;;;4972520;28;20105;-73
2022/05/27 07:59:55;;;;;;;10.85;3.38;;;12.90;99.90;;;;;;5005511;28;20487;-73
2022/05/27 08:02:22;;;;;;;14.57;3.80;;;12.80;99.90;;;;;;4992216;28;20041;-73
2022/05/27 08:04:47;;;;;;;10.07;3.38;;;12.90;99.90;;;;;;4983229;28;20040;-73
2022/05/27 08:07:13;;;;;;;12.57;3.05;;;13.00;99.90;;;;;;4958565;28;20212;-73
2022/05/27 08:09:39;;;;;;;12.45;2.80;;;13.00;99.90;;;;;;4972950;28;21526;-73
2022/05/27 08:12:06;;;;;;;9.77;3.15;;;13.20;99.90;;;;;;4958452;28;20052;-73
2022/05/27 08:14:32;;;;;;;9.07;2.92;;;13.40;99.90;;;;;;4974251;28;20056;-73
2022/05/27 08:16:59;;;;;;;12.05;3.15;;;13.60;99.90;;;;;;4983036;28;20052;-73
2022/05/27 08:19:25;;;;;;;14.65;3.50;;;13.70;99.90;;;;;;4993950;28;20454;-73
2022/05/27 08:21:51;;;;;;;13.00;3.53;;;13.80;99.90;;;;;;4974939;28;20030;-74
2022/05/27 08:24:16;;;;;;;10.75;3.10;;;13.70;99.90;;;;;;4958262;28;20118;-73
2022/05/27 08:26:43;;;;;;;12.75;3.40;;;13.60;99.90;;;;;;4985789;28;20446;-73
2022/05/27 08:29:09;;;;;;;10.82;2.90;;;13.50;99.90;;;;;;4989746;28;20046;-73
2022/05/27 08:31:36;;;;;;;13.85;3.25;;;13.60;99.90;;;;;;4986607;28;20458;-72
2022/05/27 08:39:34;;;;;;;11.27;3.25;;;14.10;99.90;;;;;;4988130;28;20495;-72
2022/05/27 08:42:09;;;;;;;11.95;3.00;;;14.10;99.90;;;;;;4984532;28;20503;-73
2022/05/27 08:45:07;;;;;;;12.88;2.92;;;14.00;99.90;;;;;;4995225;28;20057;-74
2022/05/27 08:47:42;;;;;;;13.30;3.20;;;13.90;99.90;;;;;;4986509;28;20408;-73
2022/05/27 08:50:15;;;;;;;10.88;2.60;;;13.70;99.90;;;;;;4991933;28;20065;-73
2022/05/27 08:52:44;;;;;;;12.80;3.13;;;13.70;99.90;;;;;;4967619;28;20134;-73
2022/05/27 09:01:21;;;;;;;11.73;3.00;;;14.40;99.90;;;;;;5000125;28;20053;-74
2022/05/27 09:03:58;;;;;;;6.28;2.22;;;14.30;99.90;;;;;;4984827;28;20274;-74
2022/05/27 09:06:44;;;;;;;8.63;2.50;;;14.40;99.90;;;;;;4986930;28;21323;-75
2022/05/27 09:09:19;;;;;;;8.95;2.28;;;14.40;99.30;;;;;;4986274;28;20038;-73
2022/05/27 09:12:20;;;;;;;10.15;2.97;;;14.30;99.90;;;;;;4981569;28;20101;-73
2022/05/27 09:14:56;;;;;;;6.28;2.53;;;14.40;99.40;;;;;;4986974;28;20041;-74
2022/05/27 09:17:33;;;;;;;9.98;2.63;;;14.50;99.90;;;;;;5001918;28;20497;-76
2022/05/27 09:20:25;;;;;;;9.90;2.75;;;14.60;99.90;;;;;;4970244;28;20044;-72
2022/05/27 09:23:00;;;;;;;13.32;2.25;;;14.70;99.30;;;;;;4986293;28;20116;-71
2022/05/27 09:25:47;;;;;;;8.90;2.08;;;14.70;98.00;;;;;;5002444;28;20458;-71
2022/05/27 09:28:27;;;;;;;9.20;2.55;;;14.70;99.30;;;;;;4987099;28;20042;-70
2022/05/27 09:30:57;;;;;;;12.18;2.38;;;14.80;99.40;;;;;;4981987;28;20555;-71
2022/05/27 09:33:26;;;;;;;9.00;2.85;;;14.90;99.20;;;;;;4986021;28;20052;-73
2022/05/27 09:36:14;;;;;;;10.57;2.85;;;14.70;97.90;;;;;;4988342;28;20444;-72
2022/05/27 09:38:50;;;;;;;8.98;2.70;;;14.80;98.60;;;;;;4970675;28;20387;-72
2022/05/27 09:41:26;;;;;;;7.68;2.38;;;14.90;98.70;;;;;;4986646;28;20042;-73
2022/05/27 09:44:29;;;;;;;8.93;3.05;;;14.80;98.70;;;;;;4971179;28;20403;-71
2022/05/27 09:46:55;;;;;;;7.20;2.50;;;14.80;96.30;;;;;;4971792;28;20038;-72
2022/05/27 09:49:20;;;;;;;14.75;3.15;;;14.80;98.80;;;;;;4952488;28;20408;-71
2022/05/27 09:51:46;;;;;;;12.38;4.07;;;14.90;99.10;;;;;;4966152;28;20471;-71
2022/05/27 09:54:18;;;;;;;11.40;2.42;;;15.10;98.40;;;;;;4980074;28;20442;-72
2022/05/27 09:57:01;;;;;;;9.55;2.50;;;15.30;97.70;;;;;;4991037;28;20030;-72
2022/05/27 09:59:34;;;;;;;9.13;2.72;;;15.50;96.30;;;;;;4990521;28;20073;-72
2022/05/27 10:02:18;;;;;;;8.38;2.55;;;15.70;97.00;;;;;;4987501;28;20536;-72
2022/05/27 10:04:56;;;;;;;9.93;2.65;;;15.90;96.30;;;;;;4987706;28;20041;-72
2022/05/27 10:07:31;;;;;;;11.00;2.70;;;16.10;97.60;;;;;;4984330;28;20202;-71
2022/05/27 10:10:14;;;;;;;7.00;2.58;;;16.30;96.60;;;;;;4988135;28;20037;-73
2022/05/27 10:12:40;;;;;;;10.18;2.88;;;15.90;96.60;;;;;;4958088;28;20124;-72
2022/05/27 10:15:06;;;;;;;9.00;3.03;;;15.60;97.10;;;;;;4985686;28;20073;-72
2022/05/27 10:17:36;;;;;;;11.40;2.38;;;15.30;97.70;;;;;;4987222;28;20040;-72
2022/05/27 10:20:17;;;;;;;15.70;3.05;;;15.10;98.20;;;;;;5001229;28;20505;-72
2022/05/27 10:22:57;;;;;;;9.07;2.65;;;15.10;97.90;;;;;;4983081;28;20136;-72
2022/05/27 10:25:34;;;;;;;6.72;2.28;;;14.90;98.00;;;;;;4984423;28;20038;-72
2022/05/27 10:28:00;;;;;;;8.95;2.33;;;14.80;98.70;;;;;;4970876;28;20046;-72
2022/05/27 10:30:28;;;;;;;12.40;2.78;;;14.60;98.90;;;;;;4985137;28;20103;-73
2022/05/27 10:32:55;;;;;;;11.35;2.15;;;14.80;98.20;;;;;;4985337;28;20066;-71
2022/05/27 10:35:21;;;;;;;7.03;2.05;;;15.10;97.80;;;;;;4968149;28;20253;-72
2022/05/27 10:37:55;;;;;;;6.18;2.33;;;15.10;97.60;;;;;;4979370;28;20046;-72
2022/05/27 10:40:46;;;;;;;9.73;2.50;;;15.10;97.30;;;;;;4977534;28;20042;-72
2022/05/27 10:43:33;;;;;;;9.43;2.53;;;15.00;96.90;;;;;;4973949;28;20101;-72
2022/05/27 10:46:05;;;;;;;8.50;2.60;;;14.90;96.20;;;;;;4980722;28;20038;-72
2022/05/27 10:48:52;;;;;;;13.40;2.78;;;14.90;97.00;;;;;;4983766;28;20037;-71
2022/05/27 10:51:44;;;;;;;9.95;2.60;;;15.30;97.70;;;;;;4983538;28;20102;-72
2022/05/27 10:54:31;;;;;;;9.30;2.42;;;15.70;98.50;;;;;;4987349;28;20551;-73
2022/05/27 11:03:34;;;;;;;8.85;2.20;;;15.40;95.40;;;;;;4983863;28;20046;-74
2022/05/27 11:06:18;;;;;;;11.05;2.72;;;15.30;93.80;;;;;;4972871;28;20042;-74
2022/05/27 11:09:02;;;;;;;7.13;2.40;;;15.50;96.10;;;;;;4983965;28;20478;-73
2022/05/27 11:11:28;;;;;;;6.30;1.90;;;15.70;95.00;;;;;;4972435;28;20041;-74
2022/05/27 11:17:19;;;;;;;8.45;2.47;;;16.40;95.40;;;;;;4990403;28;20419;-74
2022/05/27 11:20:24;;;;;;;11.75;2.25;;;16.60;95.30;;;;;;4974461;28;20045;-74
2022/05/27 11:23:15;;;;;;;7.40;2.67;;;16.60;94.60;;;;;;4994183;28;20050;-75
2022/05/27 11:26:08;;;;;;;7.60;2.42;;;16.40;94.40;;;;;;4977567;28;20045;-74
2022/05/27 11:28:52;;;;;;;8.90;2.65;;;16.20;95.20;;;;;;4998441;28;20121;-74
2022/05/27 11:31:45;;;;;;;11.73;2.33;;;16.20;95.80;;;;;;4971776;28;20459;-74
2022/05/27 11:34:25;;;;;;;7.80;2.60;;;16.30;95.70;;;;;;4988369;28;20050;-75
2022/05/27 11:37:17;;;;;;;12.57;2.97;;;16.10;95.30;;;;;;4982557;28;20047;-75
2022/05/27 11:40:02;;;;;;;8.20;2.35;;;15.90;94.40;;;;;;4967507;28;20061;-75
2022/05/27 11:42:56;;;;;;;10.00;3.00;;;15.90;95.40;;;;;;4983258;28;20041;-75
2022/05/27 11:45:26;;;;;;;12.05;3.08;;;16.10;95.30;;;;;;4974705;28;20080;-75
2022/05/27 11:48:23;;;;;;;11.02;2.60;;;16.00;95.10;;;;;;4977915;28;20060;-74
2022/05/27 11:51:17;;;;;;;9.57;2.70;;;15.70;94.10;;;;;;4978399;28;20049;-74
2022/05/27 11:54:06;;;;;;;7.55;2.35;;;15.70;95.60;;;;;;4998425;28;20180;-74
2022/05/27 11:57:15;;;;;;;11.55;3.13;;;15.80;95.30;;;;;;4970684;28;20034;-74
2022/05/27 11:59:51;;;;;;;10.10;2.83;;;15.80;94.90;;;;;;4972818;28;20504;-76
2022/05/27 12:02:33;;;;;;;9.90;2.92;;;15.70;94.80;;;;;;4975113;28;20034;-74
2022/05/27 12:05:12;;;;;;;9.27;2.90;;;15.60;94.50;;;;;;4975514;28;20112;-74
2022/05/27 12:07:44;;;;;;;12.00;2.95;;;15.90;95.80;;;;;;4992297;28;20033;-75
2022/05/27 12:10:26;;;;;;;5.13;2.17;;;16.00;95.60;;;;;;4977395;28;20042;-74
2022/05/27 12:13:27;;;;;;;6.18;2.28;;;16.20;94.20;;;;;;4973601;28;20500;-75
2022/05/27 12:15:57;;;;;;;8.93;3.00;;;16.20;94.60;;;;;;4960165;28;20046;-74
2022/05/27 12:18:38;;;;;;;11.90;3.60;;;16.10;94.00;;;;;;4976530;28;20658;-74
2022/05/27 12:21:11;;;;;;;9.30;2.40;;;16.40;94.70;;;;;;4968161;28;20045;-76
2022/05/27 12:23:39;;;;;;;;;;;16.50;93.90;;;;;;4965870;28;20041;-75
2022/05/27 12:26:06;;;;;;;11.10;2.88;;;16.30;93.40;;;;;;4973998;28;20267;-75
2022/05/27 12:28:38;;;;;;;9.43;2.42;;;16.10;92.40;;;;;;4989220;28;20455;-74
2022/05/27 12:31:05;;;;;;;9.70;2.53;;;16.10;93.40;;;;;;4991182;28;20688;-75
2022/05/27 12:33:34;;;;;;;7.60;2.30;;;16.30;93.90;;;;;;4971942;28;20034;-77
2022/05/27 12:36:02;;;;;;;14.68;3.70;;;16.40;94.10;;;;;;4973261;28;20132;-76
2022/05/27 12:38:33;;;;;;;12.00;2.72;;;16.30;94.30;;;;;;4973049;28;20491;-75
2022/05/27 12:41:01;;;;;;;10.05;2.63;;;16.10;94.20;;;;;;4978470;28;20113;-75
2022/05/27 12:43:36;;;;;;;8.23;2.92;;;15.90;94.40;;;;;;4975121;28;20073;-76
2022/05/27 12:46:02;;;;;;;10.88;3.22;;;16.10;95.60;;;;;;4960975;28;20125;-77
2022/05/27 12:48:34;;;;;;;14.65;3.10;;;16.30;95.10;;;;;;4989544;28;20125;-76
2022/05/27 12:51:05;;;;;;;;;;;16.10;93.70;;;;;;4974569;28;20043;-76
2022/05/27 12:53:48;;;;;;;9.73;2.67;;;15.80;93.30;;;;;;4984751;28;19921;-75
2022/05/27 13:02:21;;;;;;;7.15;2.35;;;16.10;93.70;;;;;;4986011;28;20039;-74
2022/05/27 13:04:48;;;;;;;9.95;2.53;;;15.90;94.00;;;;;;5001513;28;20069;-75
2022/05/27 13:07:20;;;;;;;12.13;3.47;;;15.60;92.90;;;;;;4986608;28;20038;-75
2022/05/27 13:09:47;;;;;;;10.20;2.95;;;15.50;94.00;;;;;;4987809;28;20046;-75
2022/05/27 13:12:58;;;;;;;14.55;3.08;;;15.50;94.60;;;;;;4969611;28;20491;-75
2022/05/27 13:15:53;;;;;;;13.90;2.80;;;15.40;94.80;;;;;;4964866;28;20061;-74
2022/05/27 13:18:22;;;;;;;7.82;2.40;;;15.20;94.20;;;;;;4981725;28;20034;-77
2022/05/27 13:21:02;;;;;;;13.38;3.30;;;15.30;94.60;;;;;;4992306;28;20402;-82
2022/05/27 13:23:31;;;;;;;10.32;2.70;;;15.20;94.60;;;;;;4971986;28;20034;-81
2022/05/27 13:26:23;;;;;;;8.85;2.42;;;15.20;94.80;;;;;;4975467;28;20041;-81
2022/05/27 13:28:53;;;;;;;9.57;2.93;;;15.60;94.70;;;;;;4991600;28;20049;-81
2022/05/27 13:31:26;;;;;;;12.15;2.67;;;16.00;95.00;;;;;;4974182;28;20104;-82
2022/05/27 13:34:17;;;;;;;7.95;2.28;;;16.30;94.70;;;;;;4991861;28;20062;-77
2022/05/27 13:37:00;;;;;;;12.65;2.80;;;16.00;93.00;;;;;;4992068;28;20050;-81
2022/05/27 13:39:39;;;;;;;11.55;2.85;;;15.70;93.30;;;;;;4993247;28;20038;-83
2022/05/27 13:42:08;;;;;;;7.32;2.20;;;15.60;94.50;;;;;;4988492;28;20057;-81
2022/05/27 13:44:39;;;;;;;13.85;2.65;;;15.80;94.80;;;;;;4984573;28;20069;-77
2022/05/27 13:47:07;;;;;;;10.80;2.70;;;16.00;94.30;;;;;;4988457;28;20057;-81
2022/05/27 13:49:39;;;;;;;9.77;2.95;;;16.30;94.00;;;;;;4960955;28;20044;-82
2022/05/27 13:52:18;;;;;;;11.13;2.87;;;16.40;93.20;;;;;;4976484;28;20034;-78